sensor_id;sensor_type;location;lat;lon;timestamp;P1;durP1;ratioP1;P2;durP2;ratioP2
71038;SDS011;58692;43.212;27.908;2023-02-15T00:00:34;15.32;;;7.00;;
71038;SDS011;58692;43.212;27.908;2023-02-15T00:03:00;15.47;;;7.03;;
71038;SDS011;58692;43.212;27.908;2023-02-15T00:05:25;17.30;;;7.23;;
71038;SDS011;58692;43.212;27.908;2023-02-15T00:07:51;18.33;;;8.13;;
71038;SDS011;58692;43.212;27.908;2023-02-15T00:10:16;15.73;;;7.03;;
71038;SDS011;58692;43.212;27.908;2023-02-15T00:12:42;19.73;;;7.00;;
71038;SDS011;58692;43.212;27.908;2023-02-15T00:15:07;15.65;;;6.60;;
71038;SDS011;58692;43.212;27.908;2023-02-15T00:17:33;16.23;;;6.63;;
71038;SDS011;58692;43.212;27.908;2023-02-15T00:19:58;14.00;;;6.67;;
71038;SDS011;58692;43.212;27.908;2023-02-15T00:22:25;16.83;;;6.53;;
71038;SDS011;58692;43.212;27.908;2023-02-15T00:24:50;17.10;;;7.72;;
71038;SDS011;58692;43.212;27.908;2023-02-15T00:27:16;14.90;;;6.87;;
71038;SDS011;58692;43.212;27.908;2023-02-15T00:29:41;17.83;;;7.43;;
71038;SDS011;58692;43.212;27.908;2023-02-15T00:32:07;16.40;;;7.30;;
71038;SDS011;58692;43.212;27.908;2023-02-15T00:34:32;16.83;;;7.17;;
71038;SDS011;58692;43.212;27.908;2023-02-15T00:36:58;15.20;;;6.90;;
71038;SDS011;58692;43.212;27.908;2023-02-15T00:39:23;16.25;;;6.90;;
71038;SDS011;58692;43.212;27.908;2023-02-15T00:41:49;16.13;;;6.90;;
71038;SDS011;58692;43.212;27.908;2023-02-15T00:44:15;17.83;;;7.03;;
71038;SDS011;58692;43.212;27.908;2023-02-15T00:46:40;16.58;;;7.70;;
71038;SDS011;58692;43.212;27.908;2023-02-15T00:49:06;15.00;;;6.50;;
71038;SDS011;58692;43.212;27.908;2023-02-15T00:51:32;15.27;;;6.25;;
71038;SDS011;58692;43.212;27.908;2023-02-15T00:53:57;15.53;;;6.87;;
71038;SDS011;58692;43.212;27.908;2023-02-15T00:56:23;13.80;;;6.65;;
71038;SDS011;58692;43.212;27.908;2023-02-15T00:58:49;17.03;;;7.77;;
71038;SDS011;58692;43.212;27.908;2023-02-15T01:01:16;15.90;;;6.77;;
71038;SDS011;58692;43.212;27.908;2023-02-15T01:03:43;16.88;;;6.80;;
71038;SDS011;58692;43.212;27.908;2023-02-15T01:06:09;16.00;;;6.33;;
71038;SDS011;58692;43.212;27.908;2023-02-15T01:08:36;16.75;;;6.75;;
71038;SDS011;58692;43.212;27.908;2023-02-15T01:11:03;20.27;;;7.60;;
71038;SDS011;58692;43.212;27.908;2023-02-15T01:13:31;16.52;;;7.30;;
71038;SDS011;58692;43.212;27.908;2023-02-15T01:15:57;16.00;;;7.00;;
71038;SDS011;58692;43.212;27.908;2023-02-15T01:18:22;15.45;;;7.00;;
71038;SDS011;58692;43.212;27.908;2023-02-15T01:20:48;16.77;;;7.47;;
71038;SDS011;58692;43.212;27.908;2023-02-15T01:23:14;17.48;;;7.22;;
71038;SDS011;58692;43.212;27.908;2023-02-15T01:25:40;17.87;;;7.57;;
71038;SDS011;58692;43.212;27.908;2023-02-15T01:28:06;16.90;;;7.40;;
71038;SDS011;58692;43.212;27.908;2023-02-15T01:30:31;17.03;;;6.97;;
71038;SDS011;58692;43.212;27.908;2023-02-15T01:32:58;15.73;;;7.05;;
71038;SDS011;58692;43.212;27.908;2023-02-15T01:35:25;16.40;;;7.22;;
71038;SDS011;58692;43.212;27.908;2023-02-15T01:37:52;18.27;;;7.03;;
71038;SDS011;58692;43.212;27.908;2023-02-15T01:40:17;15.83;;;6.37;;
71038;SDS011;58692;43.212;27.908;2023-02-15T01:42:43;18.25;;;8.07;;
71038;SDS011;58692;43.212;27.908;2023-02-15T01:47:56;15.43;;;7.03;;
71038;SDS011;58692;43.212;27.908;2023-02-15T01:50:25;18.10;;;7.10;;
71038;SDS011;58692;43.212;27.908;2023-02-15T01:55:44;15.18;;;7.25;;
71038;SDS011;58692;43.212;27.908;2023-02-15T01:58:13;13.88;;;6.47;;
71038;SDS011;58692;43.212;27.908;2023-02-15T02:00:39;16.13;;;7.70;;
71038;SDS011;58692;43.212;27.908;2023-02-15T02:03:06;13.60;;;6.43;;
71038;SDS011;58692;43.212;27.908;2023-02-15T02:05:31;16.23;;;7.22;;
71038;SDS011;58692;43.212;27.908;2023-02-15T02:07:58;16.65;;;7.35;;
71038;SDS011;58692;43.212;27.908;2023-02-15T02:10:26;16.52;;;7.07;;
71038;SDS011;58692;43.212;27.908;2023-02-15T02:12:52;18.87;;;8.03;;
71038;SDS011;58692;43.212;27.908;2023-02-15T02:15:23;17.33;;;6.75;;
71038;SDS011;58692;43.212;27.908;2023-02-15T02:21:01;16.23;;;7.73;;
71038;SDS011;58692;43.212;27.908;2023-02-15T02:23:58;17.33;;;7.50;;
71038;SDS011;58692;43.212;27.908;2023-02-15T02:32:18;29.48;;;12.55;;
71038;SDS011;58692;43.212;27.908;2023-02-15T02:34:51;38.73;;;21.23;;
71038;SDS011;58692;43.212;27.908;2023-02-15T02:40:29;32.17;;;16.65;;
71038;SDS011;58692;43.212;27.908;2023-02-15T02:43:10;27.63;;;12.63;;
71038;SDS011;58692;43.212;27.908;2023-02-15T02:45:44;24.05;;;11.93;;
71038;SDS011;58692;43.212;27.908;2023-02-15T02:48:17;23.00;;;9.63;;
71038;SDS011;58692;43.212;27.908;2023-02-15T02:50:47;22.00;;;10.20;;
71038;SDS011;58692;43.212;27.908;2023-02-15T02:53:13;21.75;;;8.93;;
71038;SDS011;58692;43.212;27.908;2023-02-15T03:00:32;21.20;;;8.93;;
71038;SDS011;58692;43.212;27.908;2023-02-15T03:03:06;20.63;;;9.27;;
71038;SDS011;58692;43.212;27.908;2023-02-15T03:05:38;20.00;;;8.57;;
71038;SDS011;58692;43.212;27.908;2023-02-15T03:08:09;22.25;;;9.98;;
71038;SDS011;58692;43.212;27.908;2023-02-15T03:10:37;20.52;;;9.35;;
71038;SDS011;58692;43.212;27.908;2023-02-15T03:13:05;22.75;;;9.40;;
71038;SDS011;58692;43.212;27.908;2023-02-15T03:15:33;21.08;;;9.32;;
71038;SDS011;58692;43.212;27.908;2023-02-15T03:18:17;20.17;;;9.37;;
71038;SDS011;58692;43.212;27.908;2023-02-15T03:20:47;23.20;;;10.20;;
71038;SDS011;58692;43.212;27.908;2023-02-15T03:23:16;22.23;;;10.02;;
71038;SDS011;58692;43.212;27.908;2023-02-15T03:25:46;24.15;;;10.30;;
71038;SDS011;58692;43.212;27.908;2023-02-15T03:28:18;21.90;;;9.55;;
71038;SDS011;58692;43.212;27.908;2023-02-15T03:30:48;19.97;;;9.00;;
71038;SDS011;58692;43.212;27.908;2023-02-15T03:33:17;20.55;;;7.93;;
71038;SDS011;58692;43.212;27.908;2023-02-15T03:35:49;16.40;;;6.82;;
71038;SDS011;58692;43.212;27.908;2023-02-15T03:38:24;14.57;;;6.10;;
71038;SDS011;58692;43.212;27.908;2023-02-15T03:40:53;14.02;;;6.15;;
71038;SDS011;58692;43.212;27.908;2023-02-15T03:43:59;16.03;;;6.40;;
71038;SDS011;58692;43.212;27.908;2023-02-15T03:46:35;17.10;;;6.20;;
71038;SDS011;58692;43.212;27.908;2023-02-15T03:49:09;17.40;;;7.18;;
71038;SDS011;58692;43.212;27.908;2023-02-15T03:51:40;14.90;;;6.28;;
71038;SDS011;58692;43.212;27.908;2023-02-15T03:56:37;16.63;;;6.53;;
71038;SDS011;58692;43.212;27.908;2023-02-15T03:59:05;16.42;;;6.68;;
71038;SDS011;58692;43.212;27.908;2023-02-15T04:01:58;17.50;;;7.15;;
71038;SDS011;58692;43.212;27.908;2023-02-15T04:04:36;14.93;;;6.53;;
71038;SDS011;58692;43.212;27.908;2023-02-15T04:07:05;15.57;;;7.38;;
71038;SDS011;58692;43.212;27.908;2023-02-15T04:09:32;17.70;;;7.33;;
71038;SDS011;58692;43.212;27.908;2023-02-15T04:12:12;17.55;;;7.50;;
71038;SDS011;58692;43.212;27.908;2023-02-15T04:14:38;21.42;;;8.48;;
71038;SDS011;58692;43.212;27.908;2023-02-15T04:17:19;19.00;;;8.73;;
71038;SDS011;58692;43.212;27.908;2023-02-15T04:19:44;18.67;;;8.27;;
71038;SDS011;58692;43.212;27.908;2023-02-15T04:22:25;16.45;;;7.35;;
71038;SDS011;58692;43.212;27.908;2023-02-15T04:25:06;18.40;;;8.03;;
71038;SDS011;58692;43.212;27.908;2023-02-15T04:27:36;17.05;;;7.30;;
71038;SDS011;58692;43.212;27.908;2023-02-15T04:30:01;19.83;;;8.80;;
71038;SDS011;58692;43.212;27.908;2023-02-15T04:32:27;20.88;;;9.00;;
71038;SDS011;58692;43.212;27.908;2023-02-15T04:34:53;19.87;;;8.30;;
71038;SDS011;58692;43.212;27.908;2023-02-15T04:37:18;16.87;;;8.13;;
71038;SDS011;58692;43.212;27.908;2023-02-15T04:39:44;18.80;;;8.23;;
71038;SDS011;58692;43.212;27.908;2023-02-15T04:42:09;24.30;;;9.40;;
71038;SDS011;58692;43.212;27.908;2023-02-15T04:44:35;20.07;;;8.80;;
71038;SDS011;58692;43.212;27.908;2023-02-15T04:47:00;19.48;;;8.23;;
71038;SDS011;58692;43.212;27.908;2023-02-15T04:49:26;22.60;;;8.87;;
71038;SDS011;58692;43.212;27.908;2023-02-15T04:51:51;22.37;;;9.87;;
71038;SDS011;58692;43.212;27.908;2023-02-15T04:54:16;22.50;;;9.60;;
71038;SDS011;58692;43.212;27.908;2023-02-15T04:56:42;21.27;;;8.53;;
71038;SDS011;58692;43.212;27.908;2023-02-15T04:59:10;19.13;;;8.37;;
71038;SDS011;58692;43.212;27.908;2023-02-15T05:01:36;18.05;;;8.95;;
71038;SDS011;58692;43.212;27.908;2023-02-15T05:04:01;22.17;;;8.93;;
71038;SDS011;58692;43.212;27.908;2023-02-15T05:06:27;19.13;;;8.90;;
71038;SDS011;58692;43.212;27.908;2023-02-15T05:08:53;21.38;;;8.82;;
71038;SDS011;58692;43.212;27.908;2023-02-15T05:11:18;20.17;;;9.17;;
71038;SDS011;58692;43.212;27.908;2023-02-15T05:13:44;21.92;;;10.20;;
71038;SDS011;58692;43.212;27.908;2023-02-15T05:16:09;21.10;;;8.40;;
71038;SDS011;58692;43.212;27.908;2023-02-15T05:18:35;19.40;;;7.97;;
71038;SDS011;58692;43.212;27.908;2023-02-15T05:21:00;19.93;;;7.90;;
71038;SDS011;58692;43.212;27.908;2023-02-15T05:23:26;19.58;;;9.45;;
71038;SDS011;58692;43.212;27.908;2023-02-15T05:25:52;24.30;;;9.30;;
71038;SDS011;58692;43.212;27.908;2023-02-15T05:28:34;16.13;;;6.95;;
71038;SDS011;58692;43.212;27.908;2023-02-15T05:33:43;14.80;;;6.23;;
71038;SDS011;58692;43.212;27.908;2023-02-15T05:36:10;16.27;;;6.78;;
71038;SDS011;58692;43.212;27.908;2023-02-15T05:38:35;17.33;;;7.28;;
71038;SDS011;58692;43.212;27.908;2023-02-15T05:41:03;18.25;;;8.57;;
71038;SDS011;58692;43.212;27.908;2023-02-15T05:43:29;20.40;;;7.72;;
71038;SDS011;58692;43.212;27.908;2023-02-15T05:45:55;17.60;;;6.70;;
71038;SDS011;58692;43.212;27.908;2023-02-15T05:48:22;22.48;;;7.70;;
71038;SDS011;58692;43.212;27.908;2023-02-15T05:50:58;17.90;;;7.10;;
71038;SDS011;58692;43.212;27.908;2023-02-15T05:53:24;14.93;;;6.33;;
71038;SDS011;58692;43.212;27.908;2023-02-15T05:55:49;15.18;;;6.57;;
71038;SDS011;58692;43.212;27.908;2023-02-15T05:58:15;20.97;;;7.27;;
71038;SDS011;58692;43.212;27.908;2023-02-15T06:00:40;16.58;;;7.50;;
71038;SDS011;58692;43.212;27.908;2023-02-15T06:03:06;17.97;;;7.77;;
71038;SDS011;58692;43.212;27.908;2023-02-15T06:05:32;20.77;;;7.97;;
71038;SDS011;58692;43.212;27.908;2023-02-15T06:07:57;15.83;;;7.43;;
71038;SDS011;58692;43.212;27.908;2023-02-15T06:10:25;18.53;;;7.40;;
71038;SDS011;58692;43.212;27.908;2023-02-15T06:12:55;18.38;;;8.15;;
71038;SDS011;58692;43.212;27.908;2023-02-15T06:15:20;22.03;;;7.87;;
71038;SDS011;58692;43.212;27.908;2023-02-15T06:17:46;21.00;;;7.70;;
71038;SDS011;58692;43.212;27.908;2023-02-15T06:20:12;18.07;;;7.40;;
71038;SDS011;58692;43.212;27.908;2023-02-15T06:22:38;18.00;;;7.05;;
71038;SDS011;58692;43.212;27.908;2023-02-15T06:25:03;19.67;;;7.20;;
71038;SDS011;58692;43.212;27.908;2023-02-15T06:27:29;18.15;;;6.93;;
71038;SDS011;58692;43.212;27.908;2023-02-15T06:29:54;14.83;;;6.70;;
71038;SDS011;58692;43.212;27.908;2023-02-15T06:32:20;17.27;;;6.97;;
71038;SDS011;58692;43.212;27.908;2023-02-15T06:34:47;20.00;;;7.40;;
71038;SDS011;58692;43.212;27.908;2023-02-15T06:37:15;15.48;;;6.78;;
71038;SDS011;58692;43.212;27.908;2023-02-15T06:39:40;15.23;;;7.23;;
71038;SDS011;58692;43.212;27.908;2023-02-15T06:42:06;16.40;;;6.75;;
71038;SDS011;58692;43.212;27.908;2023-02-15T06:44:31;18.70;;;7.93;;
71038;SDS011;58692;43.212;27.908;2023-02-15T06:46:57;16.13;;;7.47;;
71038;SDS011;58692;43.212;27.908;2023-02-15T06:49:22;16.88;;;7.07;;
71038;SDS011;58692;43.212;27.908;2023-02-15T06:55:00;14.73;;;6.82;;
71038;SDS011;58692;43.212;27.908;2023-02-15T06:57:35;16.07;;;7.10;;
71038;SDS011;58692;43.212;27.908;2023-02-15T07:00:14;15.32;;;7.30;;
71038;SDS011;58692;43.212;27.908;2023-02-15T07:02:42;17.90;;;7.25;;
71038;SDS011;58692;43.212;27.908;2023-02-15T07:05:08;14.98;;;6.30;;
71038;SDS011;58692;43.212;27.908;2023-02-15T07:07:46;13.77;;;6.63;;
71038;SDS011;58692;43.212;27.908;2023-02-15T07:10:16;18.33;;;7.20;;
71038;SDS011;58692;43.212;27.908;2023-02-15T07:12:42;15.13;;;6.70;;
71038;SDS011;58692;43.212;27.908;2023-02-15T07:15:09;15.02;;;6.07;;
71038;SDS011;58692;43.212;27.908;2023-02-15T07:17:38;14.95;;;6.55;;
71038;SDS011;58692;43.212;27.908;2023-02-15T07:20:06;16.77;;;6.83;;
71038;SDS011;58692;43.212;27.908;2023-02-15T07:22:35;14.90;;;6.00;;
71038;SDS011;58692;43.212;27.908;2023-02-15T07:25:02;13.88;;;6.15;;
71038;SDS011;58692;43.212;27.908;2023-02-15T07:27:29;14.15;;;6.28;;
71038;SDS011;58692;43.212;27.908;2023-02-15T07:29:56;12.85;;;5.65;;
71038;SDS011;58692;43.212;27.908;2023-02-15T07:32:27;16.33;;;6.00;;
71038;SDS011;58692;43.212;27.908;2023-02-15T07:34:54;13.75;;;6.10;;
71038;SDS011;58692;43.212;27.908;2023-02-15T07:37:20;15.10;;;6.23;;
71038;SDS011;58692;43.212;27.908;2023-02-15T07:39:48;14.93;;;6.30;;
71038;SDS011;58692;43.212;27.908;2023-02-15T07:42:17;14.13;;;5.97;;
71038;SDS011;58692;43.212;27.908;2023-02-15T07:44:45;13.48;;;6.20;;
71038;SDS011;58692;43.212;27.908;2023-02-15T07:47:18;13.50;;;6.30;;
71038;SDS011;58692;43.212;27.908;2023-02-15T07:49:44;14.27;;;6.47;;
71038;SDS011;58692;43.212;27.908;2023-02-15T07:52:14;13.32;;;6.20;;
71038;SDS011;58692;43.212;27.908;2023-02-15T07:54:42;13.52;;;6.53;;
71038;SDS011;58692;43.212;27.908;2023-02-15T07:57:17;14.87;;;6.43;;
71038;SDS011;58692;43.212;27.908;2023-02-15T07:59:43;15.50;;;6.10;;
71038;SDS011;58692;43.212;27.908;2023-02-15T08:02:10;14.55;;;6.65;;
71038;SDS011;58692;43.212;27.908;2023-02-15T08:04:36;13.80;;;6.63;;
71038;SDS011;58692;43.212;27.908;2023-02-15T08:07:01;15.00;;;6.97;;
71038;SDS011;58692;43.212;27.908;2023-02-15T08:09:27;15.90;;;6.93;;
71038;SDS011;58692;43.212;27.908;2023-02-15T08:11:56;14.05;;;7.10;;
71038;SDS011;58692;43.212;27.908;2023-02-15T08:14:21;11.57;;;6.00;;
71038;SDS011;58692;43.212;27.908;2023-02-15T08:16:50;18.93;;;6.10;;
71038;SDS011;58692;43.212;27.908;2023-02-15T08:21:46;10.27;;;5.45;;
71038;SDS011;58692;43.212;27.908;2023-02-15T08:24:14;14.00;;;6.45;;
71038;SDS011;58692;43.212;27.908;2023-02-15T08:26:43;13.95;;;5.90;;
71038;SDS011;58692;43.212;27.908;2023-02-15T08:29:11;12.90;;;6.37;;
71038;SDS011;58692;43.212;27.908;2023-02-15T08:31:38;16.90;;;6.55;;
71038;SDS011;58692;43.212;27.908;2023-02-15T08:34:09;14.13;;;5.55;;
71038;SDS011;58692;43.212;27.908;2023-02-15T08:36:36;13.48;;;6.20;;
71038;SDS011;58692;43.212;27.908;2023-02-15T08:39:04;10.98;;;5.60;;
71038;SDS011;58692;43.212;27.908;2023-02-15T08:41:32;12.97;;;6.10;;
71038;SDS011;58692;43.212;27.908;2023-02-15T08:44:04;13.65;;;6.18;;
71038;SDS011;58692;43.212;27.908;2023-02-15T08:46:35;12.95;;;6.70;;
71038;SDS011;58692;43.212;27.908;2023-02-15T08:49:05;14.32;;;5.78;;
71038;SDS011;58692;43.212;27.908;2023-02-15T08:51:37;13.85;;;6.18;;
71038;SDS011;58692;43.212;27.908;2023-02-15T08:54:05;14.33;;;6.53;;
71038;SDS011;58692;43.212;27.908;2023-02-15T08:56:35;15.68;;;6.90;;
71038;SDS011;58692;43.212;27.908;2023-02-15T08:59:03;13.85;;;5.95;;
71038;SDS011;58692;43.212;27.908;2023-02-15T09:01:34;15.95;;;5.80;;
71038;SDS011;58692;43.212;27.908;2023-02-15T09:04:04;14.30;;;6.40;;
71038;SDS011;58692;43.212;27.908;2023-02-15T09:06:40;12.97;;;5.93;;
71038;SDS011;58692;43.212;27.908;2023-02-15T09:09:06;11.95;;;6.00;;
71038;SDS011;58692;43.212;27.908;2023-02-15T09:11:35;13.43;;;6.47;;
71038;SDS011;58692;43.212;27.908;2023-02-15T09:14:06;14.68;;;6.60;;
71038;SDS011;58692;43.212;27.908;2023-02-15T09:16:37;13.30;;;6.20;;
71038;SDS011;58692;43.212;27.908;2023-02-15T09:22:44;13.73;;;5.45;;
71038;SDS011;58692;43.212;27.908;2023-02-15T09:25:15;14.82;;;5.60;;
71038;SDS011;58692;43.212;27.908;2023-02-15T09:27:44;16.20;;;6.03;;
71038;SDS011;58692;43.212;27.908;2023-02-15T09:30:13;13.13;;;5.53;;
71038;SDS011;58692;43.212;27.908;2023-02-15T09:32:43;10.93;;;5.28;;
71038;SDS011;58692;43.212;27.908;2023-02-15T09:35:12;14.93;;;6.03;;
71038;SDS011;58692;43.212;27.908;2023-02-15T09:37:40;16.25;;;5.97;;
71038;SDS011;58692;43.212;27.908;2023-02-15T09:40:12;13.77;;;6.32;;
71038;SDS011;58692;43.212;27.908;2023-02-15T09:43:01;14.03;;;5.87;;
71038;SDS011;58692;43.212;27.908;2023-02-15T09:45:57;13.73;;;6.40;;
71038;SDS011;58692;43.212;27.908;2023-02-15T09:51:11;14.18;;;6.30;;
71038;SDS011;58692;43.212;27.908;2023-02-15T09:53:54;15.63;;;5.50;;
71038;SDS011;58692;43.212;27.908;2023-02-15T09:56:48;18.07;;;7.00;;
71038;SDS011;58692;43.212;27.908;2023-02-15T10:05:15;13.63;;;5.72;;
71038;SDS011;58692;43.212;27.908;2023-02-15T10:08:09;13.48;;;6.78;;
71038;SDS011;58692;43.212;27.908;2023-02-15T10:13:31;15.95;;;6.30;;
71038;SDS011;58692;43.212;27.908;2023-02-15T10:30:33;13.73;;;6.50;;
71038;SDS011;58692;43.212;27.908;2023-02-15T10:33:24;15.68;;;6.80;;
71038;SDS011;58692;43.212;27.908;2023-02-15T10:49:59;17.80;;;6.50;;
71038;SDS011;58692;43.212;27.908;2023-02-15T11:01:21;13.43;;;6.80;;
71038;SDS011;58692;43.212;27.908;2023-02-15T11:04:37;15.07;;;7.15;;
71038;SDS011;58692;43.212;27.908;2023-02-15T11:06:57;14.57;;;6.93;;
71038;SDS011;58692;43.212;27.908;2023-02-15T11:09:32;13.38;;;6.88;;
71038;SDS011;58692;43.212;27.908;2023-02-15T11:12:08;13.90;;;7.00;;
71038;SDS011;58692;43.212;27.908;2023-02-15T11:14:43;16.52;;;7.13;;
71038;SDS011;58692;43.212;27.908;2023-02-15T11:17:16;21.27;;;7.90;;
71038;SDS011;58692;43.212;27.908;2023-02-15T11:22:38;13.55;;;7.05;;
71038;SDS011;58692;43.212;27.908;2023-02-15T11:25:14;13.93;;;6.57;;
71038;SDS011;58692;43.212;27.908;2023-02-15T11:27:43;13.82;;;7.15;;
71038;SDS011;58692;43.212;27.908;2023-02-15T11:30:14;17.98;;;7.70;;
71038;SDS011;58692;43.212;27.908;2023-02-15T11:32:51;14.73;;;7.63;;
71038;SDS011;58692;43.212;27.908;2023-02-15T11:35:24;16.98;;;8.00;;
71038;SDS011;58692;43.212;27.908;2023-02-15T11:38:05;13.88;;;7.60;;
71038;SDS011;58692;43.212;27.908;2023-02-15T11:40:48;17.33;;;7.63;;
71038;SDS011;58692;43.212;27.908;2023-02-15T11:43:39;15.13;;;7.90;;
71038;SDS011;58692;43.212;27.908;2023-02-15T11:46:13;16.47;;;7.93;;
71038;SDS011;58692;43.212;27.908;2023-02-15T11:48:40;16.25;;;8.10;;
71038;SDS011;58692;43.212;27.908;2023-02-15T11:51:08;16.63;;;7.38;;
71038;SDS011;58692;43.212;27.908;2023-02-15T11:53:38;15.10;;;7.55;;
71038;SDS011;58692;43.212;27.908;2023-02-15T11:56:05;16.23;;;7.38;;
71038;SDS011;58692;43.212;27.908;2023-02-15T12:01:33;16.20;;;7.55;;
71038;SDS011;58692;43.212;27.908;2023-02-15T12:04:31;13.63;;;7.20;;
71038;SDS011;58692;43.212;27.908;2023-02-15T12:07:35;15.68;;;7.68;;
71038;SDS011;58692;43.212;27.908;2023-02-15T12:10:28;15.48;;;7.18;;
71038;SDS011;58692;43.212;27.908;2023-02-15T12:13:14;21.27;;;8.60;;
71038;SDS011;58692;43.212;27.908;2023-02-15T12:15:47;16.08;;;8.25;;
71038;SDS011;58692;43.212;27.908;2023-02-15T12:18:21;14.48;;;7.35;;
71038;SDS011;58692;43.212;27.908;2023-02-15T12:23:53;17.60;;;8.73;;
71038;SDS011;58692;43.212;27.908;2023-02-15T12:26:24;15.23;;;8.03;;
71038;SDS011;58692;43.212;27.908;2023-02-15T12:28:55;17.73;;;8.18;;
71038;SDS011;58692;43.212;27.908;2023-02-15T12:31:30;15.23;;;8.18;;
71038;SDS011;58692;43.212;27.908;2023-02-15T12:34:02;17.15;;;8.32;;
71038;SDS011;58692;43.212;27.908;2023-02-15T12:36:43;14.07;;;7.90;;
71038;SDS011;58692;43.212;27.908;2023-02-15T12:39:16;17.30;;;8.83;;
71038;SDS011;58692;43.212;27.908;2023-02-15T12:44:20;15.77;;;8.07;;
71038;SDS011;58692;43.212;27.908;2023-02-15T12:46:56;16.25;;;8.05;;
71038;SDS011;58692;43.212;27.908;2023-02-15T12:49:24;14.40;;;7.45;;
71038;SDS011;58692;43.212;27.908;2023-02-15T12:51:51;15.85;;;7.88;;
71038;SDS011;58692;43.212;27.908;2023-02-15T12:54:31;18.85;;;8.82;;
71038;SDS011;58692;43.212;27.908;2023-02-15T12:59:49;16.05;;;7.20;;
71038;SDS011;58692;43.212;27.908;2023-02-15T13:02:27;18.80;;;8.18;;
71038;SDS011;58692;43.212;27.908;2023-02-15T13:04:56;20.13;;;8.27;;
71038;SDS011;58692;43.212;27.908;2023-02-15T13:07:29;17.88;;;8.40;;
71038;SDS011;58692;43.212;27.908;2023-02-15T13:09:58;16.30;;;8.17;;
71038;SDS011;58692;43.212;27.908;2023-02-15T13:12:25;18.20;;;8.70;;
71038;SDS011;58692;43.212;27.908;2023-02-15T13:14:54;19.70;;;8.73;;
71038;SDS011;58692;43.212;27.908;2023-02-15T13:17:23;19.23;;;9.32;;
71038;SDS011;58692;43.212;27.908;2023-02-15T13:19:54;16.83;;;8.35;;
71038;SDS011;58692;43.212;27.908;2023-02-15T13:22:31;17.57;;;8.53;;
71038;SDS011;58692;43.212;27.908;2023-02-15T13:25:19;17.77;;;8.60;;
71038;SDS011;58692;43.212;27.908;2023-02-15T13:27:50;18.98;;;8.40;;
71038;SDS011;58692;43.212;27.908;2023-02-15T13:30:22;19.65;;;9.40;;
71038;SDS011;58692;43.212;27.908;2023-02-15T13:32:59;18.67;;;9.20;;
71038;SDS011;58692;43.212;27.908;2023-02-15T13:35:29;18.37;;;8.40;;
71038;SDS011;58692;43.212;27.908;2023-02-15T13:38:10;17.10;;;8.70;;
71038;SDS011;58692;43.212;27.908;2023-02-15T13:43:35;17.40;;;8.32;;
71038;SDS011;58692;43.212;27.908;2023-02-15T13:54:45;18.20;;;8.23;;
71038;SDS011;58692;43.212;27.908;2023-02-15T13:57:29;19.13;;;8.82;;
71038;SDS011;58692;43.212;27.908;2023-02-15T14:00:26;17.17;;;8.57;;
71038;SDS011;58692;43.212;27.908;2023-02-15T14:12:19;17.92;;;8.52;;
71038;SDS011;58692;43.212;27.908;2023-02-15T14:14:55;19.60;;;9.05;;
71038;SDS011;58692;43.212;27.908;2023-02-15T14:20:08;20.98;;;9.30;;
71038;SDS011;58692;43.212;27.908;2023-02-15T14:30:51;18.23;;;8.03;;
71038;SDS011;58692;43.212;27.908;2023-02-15T14:33:31;17.48;;;8.85;;
71038;SDS011;58692;43.212;27.908;2023-02-15T14:36:14;17.42;;;8.48;;
71038;SDS011;58692;43.212;27.908;2023-02-15T14:41:28;15.50;;;7.55;;
71038;SDS011;58692;43.212;27.908;2023-02-15T14:47:31;19.65;;;8.15;;
71038;SDS011;58692;43.212;27.908;2023-02-15T14:50:23;14.65;;;7.25;;
71038;SDS011;58692;43.212;27.908;2023-02-15T14:56:05;16.55;;;7.90;;
71038;SDS011;58692;43.212;27.908;2023-02-15T14:58:36;14.53;;;6.83;;
71038;SDS011;58692;43.212;27.908;2023-02-15T15:07:25;15.95;;;7.07;;
71038;SDS011;58692;43.212;27.908;2023-02-15T15:13:34;16.83;;;7.47;;
71038;SDS011;58692;43.212;27.908;2023-02-15T15:18:57;16.48;;;7.82;;
71038;SDS011;58692;43.212;27.908;2023-02-15T15:48:57;24.35;;;11.15;;
71038;SDS011;58692;43.212;27.908;2023-02-15T15:51:30;25.33;;;11.25;;
71038;SDS011;58692;43.212;27.908;2023-02-15T15:53:58;27.88;;;12.57;;
71038;SDS011;58692;43.212;27.908;2023-02-15T15:56:30;31.03;;;11.53;;
71038;SDS011;58692;43.212;27.908;2023-02-15T15:59:52;26.05;;;12.57;;
71038;SDS011;58692;43.212;27.908;2023-02-15T16:02:19;24.42;;;11.90;;
71038;SDS011;58692;43.212;27.908;2023-02-15T16:07:42;37.28;;;21.42;;
71038;SDS011;58692;43.212;27.908;2023-02-15T16:10:19;40.73;;;23.40;;
71038;SDS011;58692;43.212;27.908;2023-02-15T16:12:50;46.63;;;25.48;;
71038;SDS011;58692;43.212;27.908;2023-02-15T16:15:22;42.00;;;24.02;;
71038;SDS011;58692;43.212;27.908;2023-02-15T16:17:51;37.87;;;21.87;;
71038;SDS011;58692;43.212;27.908;2023-02-15T16:22:47;30.98;;;18.23;;
71038;SDS011;58692;43.212;27.908;2023-02-15T16:28:15;51.22;;;19.00;;
71038;SDS011;58692;43.212;27.908;2023-02-15T16:31:04;34.57;;;16.33;;
71038;SDS011;58692;43.212;27.908;2023-02-15T16:33:37;34.85;;;16.90;;
71038;SDS011;58692;43.212;27.908;2023-02-15T16:36:05;31.85;;;17.05;;
71038;SDS011;58692;43.212;27.908;2023-02-15T16:41:22;33.40;;;15.82;;
71038;SDS011;58692;43.212;27.908;2023-02-15T16:43:49;30.73;;;14.50;;
71038;SDS011;58692;43.212;27.908;2023-02-15T16:46:16;28.80;;;14.32;;
71038;SDS011;58692;43.212;27.908;2023-02-15T16:48:49;29.98;;;14.75;;
71038;SDS011;58692;43.212;27.908;2023-02-15T16:51:18;30.35;;;14.15;;
71038;SDS011;58692;43.212;27.908;2023-02-15T16:53:47;32.33;;;14.30;;
71038;SDS011;58692;43.212;27.908;2023-02-15T16:56:14;28.10;;;14.47;;
71038;SDS011;58692;43.212;27.908;2023-02-15T16:58:43;29.33;;;14.10;;
71038;SDS011;58692;43.212;27.908;2023-02-15T17:01:11;27.73;;;14.10;;
71038;SDS011;58692;43.212;27.908;2023-02-15T17:03:40;28.77;;;14.43;;
71038;SDS011;58692;43.212;27.908;2023-02-15T17:08:51;30.30;;;14.73;;
71038;SDS011;58692;43.212;27.908;2023-02-15T17:11:20;29.73;;;14.07;;
71038;SDS011;58692;43.212;27.908;2023-02-15T17:14:10;29.08;;;15.80;;
71038;SDS011;58692;43.212;27.908;2023-02-15T17:16:42;39.75;;;19.05;;
71038;SDS011;58692;43.212;27.908;2023-02-15T17:22:02;33.70;;;15.93;;
71038;SDS011;58692;43.212;27.908;2023-02-15T17:26:57;32.47;;;15.60;;
71038;SDS011;58692;43.212;27.908;2023-02-15T17:29:34;31.55;;;13.40;;
71038;SDS011;58692;43.212;27.908;2023-02-15T17:32:03;31.55;;;15.65;;
71038;SDS011;58692;43.212;27.908;2023-02-15T17:37:10;26.60;;;12.88;;
71038;SDS011;58692;43.212;27.908;2023-02-15T17:39:38;26.50;;;12.70;;
71038;SDS011;58692;43.212;27.908;2023-02-15T17:42:05;28.00;;;13.40;;
71038;SDS011;58692;43.212;27.908;2023-02-15T17:44:31;28.03;;;13.33;;
71038;SDS011;58692;43.212;27.908;2023-02-15T17:46:56;44.00;;;22.30;;
71038;SDS011;58692;43.212;27.908;2023-02-15T17:49:23;43.63;;;21.93;;
71038;SDS011;58692;43.212;27.908;2023-02-15T17:51:51;57.45;;;26.40;;
71038;SDS011;58692;43.212;27.908;2023-02-15T17:54:17;50.70;;;26.20;;
71038;SDS011;58692;43.212;27.908;2023-02-15T17:56:57;52.80;;;25.75;;
71038;SDS011;58692;43.212;27.908;2023-02-15T17:59:29;48.33;;;23.02;;
71038;SDS011;58692;43.212;27.908;2023-02-15T18:01:55;42.27;;;21.30;;